Nord Taipei — 3EYN2 — position and weather

sailwx.info

Track history (hours):
 
Tides and Currents Weather Stations Pressure Air Temp Water Temp Dewpoint Dewpoint Depression Visibility Wind Speed Wind Dir Waves Ship Positions

Nord Taipei

Last reported at 2018-May-21 00:11 UTC. Time now 2018-Jun-21 18:03 UTC.
Position N 01°25' E 104°30'.
Warning: this ship's position is 31 days out of date.

Length 177 m; draft 9.7 m.

Type: Cargo ship. MMSI: 352031000.

Date/timePositionNaut miles runAvg speedWind from/ knotsBaromVisibWave heightAir tempDewpointWater temp
2018-May-21 00:11N 01°25' E 104°30'416.7
2018-May-20 23:58N 01°23' E 104°27'816.3
2018-May-20 23:27N 01°18' E 104°20'716.0
2018-May-20 23:00N 01°16' E 104°13'815.2
2018-May-20 22:31N 01°15' E 104°06'510.4
2018-May-20 21:59N 01°17' E 104°01'1 1.5
2018-May-20 21:16N 01°18' E 103°60'0 0.0
2018-May-20 21:00N 01°17' E 103°60'0 0.0
2018-May-20 20:25N 01°18' E 103°60'0 0.0
2018-May-20 19:57N 01°17' E 103°60'0 0.0
2018-May-20 19:18N 01°17' E 103°60'0 0.3
2018-May-20 18:57N 01°18' E 103°60'0 0.4
2018-May-20 18:30N 01°17' E 103°60'0 0.1
2018-May-20 17:52N 01°17' E 103°60'0 0.0
2018-May-20 17:27N 01°17' E 103°60'0 0.0
2018-May-20 16:59N 01°17' E 103°60'0 0.0
2018-May-20 16:30N 01°17' E 103°60'0 0.0
2018-May-20 16:00N 01°17' E 103°60'0 0.0
2018-May-20 15:27N 01°17' E 103°60'0 0.0
2018-May-20 14:48N 01°17' E 103°60'0 0.0
2018-May-20 14:30N 01°17' E 103°60'0 0.0
2018-May-20 14:00N 01°17' E 103°60'0 0.0
2018-May-20 13:30N 01°17' E 103°60'0 0.0
2018-May-20 12:56N 01°17' E 103°60'0 0.0
2018-May-20 12:27N 01°17' E 103°60'0 0.0
2018-May-20 11:52N 01°17' E 103°60'0 0.0
2018-May-20 11:12N 01°17' E 103°60'0 0.0
2018-May-20 10:54N 01°17' E 103°60'0 0.0
2018-May-20 10:15N 01°17' E 103°60'0 0.0
2018-May-20 09:59N 01°17' E 103°60'0 0.1
2018-May-20 09:30N 01°17' E 103°60'0 0.0
2018-May-20 08:57N 01°17' E 103°60'0 0.1
2018-May-20 08:31N 01°18' E 103°60'2 4.6
2018-May-20 08:00N 01°16' E 103°58'3 6.0
2018-May-20 07:30N 01°14' E 103°56'3 7.0
2018-May-20 07:00N 01°12' E 103°53'5 9.3
2018-May-20 06:30N 01°10' E 103°49'5 9.6
2018-May-20 06:00N 01°07' E 103°45'4 8.0
2018-May-20 05:29N 01°04' E 103°42'4 9.0
2018-May-20 05:00N 01°03' E 103°38'4 7.5
2018-May-20 04:31N 01°06' E 103°35'4 7.9
2018-May-20 04:00N 01°08' E 103°31'611.4
2018-May-20 03:27N 01°11' E 103°26'612.8
2018-May-20 03:00N 01°15' E 103°21'712.9
2018-May-20 02:27N 01°19' E 103°16'612.6
2018-May-20 01:58N 01°23' E 103°11'  
Track history (hours):
 
Tides and Currents Weather Stations Pressure Air Temp Water Temp Dewpoint Dewpoint Depression Visibility Wind Speed Wind Dir Waves Ship Positions

Nord Taipei

Last reported at 2018-May-21 00:11 UTC. Time now 2018-Jun-21 18:03 UTC.
Position N 01°25' E 104°30'.
Warning: this ship's position is 31 days out of date.

Length 177 m; draft 9.7 m.

Type: Cargo ship. MMSI: 352031000.

Date/timePositionNaut miles runAvg speedWind from/ knotsBaromVisibWave heightAir tempDewpointWater temp
2018-May-21 00:11N 01°25' E 104°30'416.7
2018-May-20 23:58N 01°23' E 104°27'816.3
2018-May-20 23:27N 01°18' E 104°20'716.0
2018-May-20 23:00N 01°16' E 104°13'815.2
2018-May-20 22:31N 01°15' E 104°06'510.4
2018-May-20 21:59N 01°17' E 104°01'1 1.5
2018-May-20 21:16N 01°18' E 103°60'0 0.0
2018-May-20 21:00N 01°17' E 103°60'0 0.0
2018-May-20 20:25N 01°18' E 103°60'0 0.0
2018-May-20 19:57N 01°17' E 103°60'0 0.0
2018-May-20 19:18N 01°17' E 103°60'0 0.3
2018-May-20 18:57N 01°18' E 103°60'0 0.4
2018-May-20 18:30N 01°17' E 103°60'0 0.1
2018-May-20 17:52N 01°17' E 103°60'0 0.0
2018-May-20 17:27N 01°17' E 103°60'0 0.0
2018-May-20 16:59N 01°17' E 103°60'0 0.0
2018-May-20 16:30N 01°17' E 103°60'0 0.0
2018-May-20 16:00N 01°17' E 103°60'0 0.0
2018-May-20 15:27N 01°17' E 103°60'0 0.0
2018-May-20 14:48N 01°17' E 103°60'0 0.0
2018-May-20 14:30N 01°17' E 103°60'0 0.0
2018-May-20 14:00N 01°17' E 103°60'0 0.0
2018-May-20 13:30N 01°17' E 103°60'0 0.0
2018-May-20 12:56N 01°17' E 103°60'0 0.0
2018-May-20 12:27N 01°17' E 103°60'0 0.0
2018-May-20 11:52N 01°17' E 103°60'0 0.0
2018-May-20 11:12N 01°17' E 103°60'0 0.0
2018-May-20 10:54N 01°17' E 103°60'0 0.0
2018-May-20 10:15N 01°17' E 103°60'0 0.0
2018-May-20 09:59N 01°17' E 103°60'0 0.1
2018-May-20 09:30N 01°17' E 103°60'0 0.0
2018-May-20 08:57N 01°17' E 103°60'0 0.1
2018-May-20 08:31N 01°18' E 103°60'2 4.6
2018-May-20 08:00N 01°16' E 103°58'3 6.0
2018-May-20 07:30N 01°14' E 103°56'3 7.0
2018-May-20 07:00N 01°12' E 103°53'5 9.3
2018-May-20 06:30N 01°10' E 103°49'5 9.6
2018-May-20 06:00N 01°07' E 103°45'4 8.0
2018-May-20 05:29N 01°04' E 103°42'4 9.0
2018-May-20 05:00N 01°03' E 103°38'4 7.5
2018-May-20 04:31N 01°06' E 103°35'4 7.9
2018-May-20 04:00N 01°08' E 103°31'611.4
2018-May-20 03:27N 01°11' E 103°26'612.8
2018-May-20 03:00N 01°15' E 103°21'712.9
2018-May-20 02:27N 01°19' E 103°16'612.6
2018-May-20 01:58N 01°23' E 103°11'  

Dump ship's entire track history